sensor_id;sensor_type;location;lat;lon;timestamp;pressure;altitude;pressure_sealevel;temperature;humidity
70437;BME280;57877;39.750;-104.894;2022-07-06T00:01:43;83784.65;;;27.47;24.82
70437;BME280;57877;39.750;-104.894;2022-07-06T00:04:09;83782.73;;;27.49;25.08
70437;BME280;57877;39.750;-104.894;2022-07-06T00:06:35;83776.54;;;27.57;24.03
70437;BME280;57877;39.750;-104.894;2022-07-06T00:09:01;83777.70;;;27.69;24.00
70437;BME280;57877;39.750;-104.894;2022-07-06T00:11:27;83773.48;;;26.36;25.03
70437;BME280;57877;39.750;-104.894;2022-07-06T00:13:53;83771.48;;;26.24;25.54
70437;BME280;57877;39.750;-104.894;2022-07-06T00:16:19;83773.84;;;26.77;25.38
70437;BME280;57877;39.750;-104.894;2022-07-06T00:18:45;83777.77;;;27.19;24.80
70437;BME280;57877;39.750;-104.894;2022-07-06T00:21:11;83779.82;;;27.36;24.07
70437;BME280;57877;39.750;-104.894;2022-07-06T00:23:37;83781.79;;;27.29;24.02
70437;BME280;57877;39.750;-104.894;2022-07-06T00:26:03;83775.93;;;27.15;25.00
70437;BME280;57877;39.750;-104.894;2022-07-06T00:28:29;83772.83;;;27.46;24.88
70437;BME280;57877;39.750;-104.894;2022-07-06T00:30:55;83768.69;;;27.56;24.86
70437;BME280;57877;39.750;-104.894;2022-07-06T00:33:21;83761.74;;;28.23;23.93
70437;BME280;57877;39.750;-104.894;2022-07-06T00:35:46;83759.54;;;27.92;23.66
70437;BME280;57877;39.750;-104.894;2022-07-06T00:38:12;83762.82;;;28.19;23.65
70437;BME280;57877;39.750;-104.894;2022-07-06T00:40:38;83766.95;;;27.81;23.33
70437;BME280;57877;39.750;-104.894;2022-07-06T00:43:04;83766.57;;;28.05;23.21
70437;BME280;57877;39.750;-104.894;2022-07-06T00:45:30;83770.38;;;27.98;23.89
70437;BME280;57877;39.750;-104.894;2022-07-06T00:47:56;83772.97;;;28.19;23.17
70437;BME280;57877;39.750;-104.894;2022-07-06T00:50:23;83779.06;;;28.80;23.01
70437;BME280;57877;39.750;-104.894;2022-07-06T00:52:49;83780.80;;;28.48;22.81
70437;BME280;57877;39.750;-104.894;2022-07-06T00:55:15;83780.41;;;28.73;22.50
70437;BME280;57877;39.750;-104.894;2022-07-06T00:57:40;83776.32;;;28.91;22.61
70437;BME280;57877;39.750;-104.894;2022-07-06T01:00:08;83776.23;;;28.57;22.40
70437;BME280;57877;39.750;-104.894;2022-07-06T01:02:31;83772.71;;;28.75;22.25
70437;BME280;57877;39.750;-104.894;2022-07-06T01:04:57;83772.17;;;27.82;22.58
70437;BME280;57877;39.750;-104.894;2022-07-06T01:07:23;83771.90;;;28.11;22.22
70437;BME280;57877;39.750;-104.894;2022-07-06T01:09:49;83775.66;;;28.53;22.57
70437;BME280;57877;39.750;-104.894;2022-07-06T01:12:16;83778.63;;;28.64;22.06
70437;BME280;57877;39.750;-104.894;2022-07-06T01:14:41;83779.85;;;28.31;22.10
70437;BME280;57877;39.750;-104.894;2022-07-06T01:17:08;83777.99;;;28.15;22.11
70437;BME280;57877;39.750;-104.894;2022-07-06T01:19:33;83777.64;;;28.23;22.02
70437;BME280;57877;39.750;-104.894;2022-07-06T01:22:01;83773.22;;;28.39;22.22
70437;BME280;57877;39.750;-104.894;2022-07-06T01:24:25;83771.83;;;28.27;21.84
70437;BME280;57877;39.750;-104.894;2022-07-06T01:26:51;83769.42;;;27.78;21.98
70437;BME280;57877;39.750;-104.894;2022-07-06T01:29:18;83763.68;;;27.05;21.86
70437;BME280;57877;39.750;-104.894;2022-07-06T01:31:47;83763.99;;;27.50;21.85
70437;BME280;57877;39.750;-104.894;2022-07-06T01:34:10;83761.41;;;27.89;22.03
70437;BME280;57877;39.750;-104.894;2022-07-06T01:36:36;83758.29;;;27.72;21.92
70437;BME280;57877;39.750;-104.894;2022-07-06T01:39:00;83760.43;;;27.98;21.71
70437;BME280;57877;39.750;-104.894;2022-07-06T01:41:27;83761.57;;;27.79;21.65
70437;BME280;57877;39.750;-104.894;2022-07-06T01:43:53;83758.90;;;28.09;21.49
70437;BME280;57877;39.750;-104.894;2022-07-06T01:46:19;83759.38;;;28.18;21.80
70437;BME280;57877;39.750;-104.894;2022-07-06T01:48:44;83763.56;;;27.61;21.87
70437;BME280;57877;39.750;-104.894;2022-07-06T01:51:10;83767.69;;;27.99;21.71
70437;BME280;57877;39.750;-104.894;2022-07-06T01:53:36;83771.50;;;27.42;21.78
70437;BME280;57877;39.750;-104.894;2022-07-06T01:56:01;83772.33;;;27.30;21.81
70437;BME280;57877;39.750;-104.894;2022-07-06T01:58:27;83766.85;;;27.15;21.84
70437;BME280;57877;39.750;-104.894;2022-07-06T02:00:53;83759.22;;;27.02;21.80
70437;BME280;57877;39.750;-104.894;2022-07-06T02:03:19;83752.41;;;27.03;21.88
70437;BME280;57877;39.750;-104.894;2022-07-06T02:05:45;83751.82;;;26.83;21.88
70437;BME280;57877;39.750;-104.894;2022-07-06T02:08:09;83752.34;;;27.35;21.79
70437;BME280;57877;39.750;-104.894;2022-07-06T02:10:35;83753.90;;;26.91;22.14
70437;BME280;57877;39.750;-104.894;2022-07-06T02:13:01;83756.79;;;27.44;21.66
70437;BME280;57877;39.750;-104.894;2022-07-06T02:15:27;83758.34;;;27.52;21.52
70437;BME280;57877;39.750;-104.894;2022-07-06T02:17:53;83760.92;;;27.42;21.72
70437;BME280;57877;39.750;-104.894;2022-07-06T02:20:19;83763.46;;;27.10;21.83
70437;BME280;57877;39.750;-104.894;2022-07-06T02:22:45;83766.46;;;27.24;21.76
70437;BME280;57877;39.750;-104.894;2022-07-06T02:25:11;83771.52;;;27.15;21.88
70437;BME280;57877;39.750;-104.894;2022-07-06T02:27:37;83773.44;;;26.68;21.92
70437;BME280;57877;39.750;-104.894;2022-07-06T02:30:03;83774.91;;;27.04;21.78
70437;BME280;57877;39.750;-104.894;2022-07-06T02:32:29;83774.30;;;27.17;21.88
70437;BME280;57877;39.750;-104.894;2022-07-06T02:34:54;83771.00;;;26.81;22.03
70437;BME280;57877;39.750;-104.894;2022-07-06T02:37:20;83771.60;;;26.86;22.18
70437;BME280;57877;39.750;-104.894;2022-07-06T02:39:48;83775.53;;;26.68;22.54
70437;BME280;57877;39.750;-104.894;2022-07-06T02:42:12;83772.77;;;26.76;22.44
70437;BME280;57877;39.750;-104.894;2022-07-06T02:44:40;83771.32;;;26.60;22.71
70437;BME280;57877;39.750;-104.894;2022-07-06T02:47:05;83770.11;;;26.53;22.80
70437;BME280;57877;39.750;-104.894;2022-07-06T02:49:30;83770.65;;;26.43;22.91
70437;BME280;57877;39.750;-104.894;2022-07-06T02:51:58;83772.00;;;26.26;22.97
70437;BME280;57877;39.750;-104.894;2022-07-06T02:54:22;83773.05;;;25.79;23.46
70437;BME280;57877;39.750;-104.894;2022-07-06T02:56:49;83767.59;;;26.07;23.11
70437;BME280;57877;39.750;-104.894;2022-07-06T02:59:15;83769.24;;;26.40;23.02
70437;BME280;57877;39.750;-104.894;2022-07-06T03:01:40;83767.19;;;26.03;22.96
70437;BME280;57877;39.750;-104.894;2022-07-06T03:04:07;83770.94;;;26.41;22.87
70437;BME280;57877;39.750;-104.894;2022-07-06T03:06:32;83772.17;;;26.66;22.61
70437;BME280;57877;39.750;-104.894;2022-07-06T03:09:05;83774.74;;;26.76;22.52
70437;BME280;57877;39.750;-104.894;2022-07-06T03:11:24;83778.07;;;26.92;22.32
70437;BME280;57877;39.750;-104.894;2022-07-06T03:13:50;83778.07;;;26.81;22.46
70437;BME280;57877;39.750;-104.894;2022-07-06T03:16:16;83781.32;;;26.56;22.53
70437;BME280;57877;39.750;-104.894;2022-07-06T03:18:42;83783.64;;;26.76;22.47
70437;BME280;57877;39.750;-104.894;2022-07-06T03:21:09;83786.05;;;26.65;22.39
70437;BME280;57877;39.750;-104.894;2022-07-06T03:23:34;83783.92;;;26.59;22.35
70437;BME280;57877;39.750;-104.894;2022-07-06T03:26:00;83783.04;;;26.58;22.25
70437;BME280;57877;39.750;-104.894;2022-07-06T03:28:26;83782.72;;;26.56;22.09
70437;BME280;57877;39.750;-104.894;2022-07-06T03:30:51;83783.50;;;26.70;22.04
70437;BME280;57877;39.750;-104.894;2022-07-06T03:33:17;83783.51;;;26.47;22.25
70437;BME280;57877;39.750;-104.894;2022-07-06T03:35:43;83786.55;;;26.43;22.11
70437;BME280;57877;39.750;-104.894;2022-07-06T03:38:09;83790.66;;;26.72;21.90
70437;BME280;57877;39.750;-104.894;2022-07-06T03:40:35;83792.98;;;26.77;21.97
70437;BME280;57877;39.750;-104.894;2022-07-06T03:43:02;83793.21;;;26.58;22.04
70437;BME280;57877;39.750;-104.894;2022-07-06T03:45:33;83794.17;;;26.95;21.70
70437;BME280;57877;39.750;-104.894;2022-07-06T03:47:53;83797.39;;;26.74;21.55
70437;BME280;57877;39.750;-104.894;2022-07-06T03:50:21;83800.22;;;27.08;21.75
70437;BME280;57877;39.750;-104.894;2022-07-06T03:52:44;83804.87;;;26.71;21.79
70437;BME280;57877;39.750;-104.894;2022-07-06T03:55:10;83811.41;;;26.43;21.69
70437;BME280;57877;39.750;-104.894;2022-07-06T03:57:34;83818.93;;;26.93;21.79
70437;BME280;57877;39.750;-104.894;2022-07-06T04:00:00;83818.82;;;26.24;22.24
70437;BME280;57877;39.750;-104.894;2022-07-06T04:02:25;83823.53;;;26.53;21.83
70437;BME280;57877;39.750;-104.894;2022-07-06T04:04:50;83825.10;;;26.17;21.84
70437;BME280;57877;39.750;-104.894;2022-07-06T04:07:16;83824.24;;;26.21;21.94
70437;BME280;57877;39.750;-104.894;2022-07-06T04:09:41;83821.62;;;26.20;22.03
70437;BME280;57877;39.750;-104.894;2022-07-06T04:12:08;83815.25;;;26.14;21.91
70437;BME280;57877;39.750;-104.894;2022-07-06T04:14:32;83811.48;;;25.94;21.98
70437;BME280;57877;39.750;-104.894;2022-07-06T04:16:57;83811.05;;;26.51;21.84
70437;BME280;57877;39.750;-104.894;2022-07-06T04:19:23;83811.07;;;26.12;21.87
70437;BME280;57877;39.750;-104.894;2022-07-06T04:21:48;83811.02;;;26.50;21.85
70437;BME280;57877;39.750;-104.894;2022-07-06T04:24:13;83811.03;;;26.46;21.69
70437;BME280;57877;39.750;-104.894;2022-07-06T04:26:38;83812.40;;;26.44;21.64
70437;BME280;57877;39.750;-104.894;2022-07-06T04:29:03;83814.97;;;26.37;21.76
70437;BME280;57877;39.750;-104.894;2022-07-06T04:31:28;83817.72;;;26.30;21.82
70437;BME280;57877;39.750;-104.894;2022-07-06T04:33:53;83820.77;;;26.34;21.67
70437;BME280;57877;39.750;-104.894;2022-07-06T04:36:18;83823.66;;;26.90;21.55
70437;BME280;57877;39.750;-104.894;2022-07-06T04:38:44;83824.47;;;26.28;21.75
70437;BME280;57877;39.750;-104.894;2022-07-06T04:41:10;83823.09;;;26.59;21.86
70437;BME280;57877;39.750;-104.894;2022-07-06T04:43:36;83823.77;;;26.10;21.68
70437;BME280;57877;39.750;-104.894;2022-07-06T04:46:07;83822.17;;;26.26;21.79
70437;BME280;57877;39.750;-104.894;2022-07-06T04:48:28;83820.97;;;25.92;21.63
70437;BME280;57877;39.750;-104.894;2022-07-06T04:50:54;83821.27;;;26.27;21.62
70437;BME280;57877;39.750;-104.894;2022-07-06T04:53:20;83818.93;;;25.92;21.98
70437;BME280;57877;39.750;-104.894;2022-07-06T04:55:46;83821.19;;;26.11;22.39
70437;BME280;57877;39.750;-104.894;2022-07-06T04:58:12;83822.54;;;25.71;23.16
70437;BME280;57877;39.750;-104.894;2022-07-06T05:00:38;83824.33;;;25.49;23.76
70437;BME280;57877;39.750;-104.894;2022-07-06T05:03:04;83826.25;;;25.59;23.88
70437;BME280;57877;39.750;-104.894;2022-07-06T05:05:30;83828.35;;;25.73;23.91
70437;BME280;57877;39.750;-104.894;2022-07-06T05:07:56;83834.44;;;26.26;24.05
70437;BME280;57877;39.750;-104.894;2022-07-06T05:10:22;83833.97;;;25.63;24.27
70437;BME280;57877;39.750;-104.894;2022-07-06T05:12:48;83833.14;;;25.94;23.84
70437;BME280;57877;39.750;-104.894;2022-07-06T05:15:14;83832.41;;;25.97;23.55
70437;BME280;57877;39.750;-104.894;2022-07-06T05:17:40;83830.04;;;25.89;23.44
70437;BME280;57877;39.750;-104.894;2022-07-06T05:20:07;83826.44;;;25.89;23.58
70437;BME280;57877;39.750;-104.894;2022-07-06T05:22:31;83822.54;;;25.87;23.92
70437;BME280;57877;39.750;-104.894;2022-07-06T05:24:58;83817.69;;;25.41;24.47
70437;BME280;57877;39.750;-104.894;2022-07-06T05:27:23;83812.45;;;25.27;24.76
70437;BME280;57877;39.750;-104.894;2022-07-06T05:29:49;83811.30;;;25.33;24.80
70437;BME280;57877;39.750;-104.894;2022-07-06T05:32:16;83811.14;;;25.34;24.96
70437;BME280;57877;39.750;-104.894;2022-07-06T05:34:41;83809.50;;;25.68;24.90
70437;BME280;57877;39.750;-104.894;2022-07-06T05:37:06;83815.07;;;25.37;25.11
70437;BME280;57877;39.750;-104.894;2022-07-06T05:39:30;83822.89;;;25.83;24.67
70437;BME280;57877;39.750;-104.894;2022-07-06T05:41:56;83838.86;;;25.06;26.12
70437;BME280;57877;39.750;-104.894;2022-07-06T05:44:21;83853.05;;;24.22;26.82
70437;BME280;57877;39.750;-104.894;2022-07-06T05:46:47;83863.16;;;24.03;26.94
70437;BME280;57877;39.750;-104.894;2022-07-06T05:49:13;83865.30;;;24.03;27.14
70437;BME280;57877;39.750;-104.894;2022-07-06T05:51:39;83855.77;;;24.39;25.93
70437;BME280;57877;39.750;-104.894;2022-07-06T05:54:05;83850.70;;;24.47;25.04
70437;BME280;57877;39.750;-104.894;2022-07-06T05:56:30;83863.43;;;25.06;24.45
70437;BME280;57877;39.750;-104.894;2022-07-06T05:58:56;83872.23;;;24.73;24.78
70437;BME280;57877;39.750;-104.894;2022-07-06T06:01:22;83875.04;;;24.85;25.15
70437;BME280;57877;39.750;-104.894;2022-07-06T06:03:48;83868.32;;;25.05;24.61
70437;BME280;57877;39.750;-104.894;2022-07-06T06:06:13;83857.83;;;25.36;24.04
70437;BME280;57877;39.750;-104.894;2022-07-06T06:08:38;83855.55;;;24.89;24.69
70437;BME280;57877;39.750;-104.894;2022-07-06T06:11:04;83853.90;;;25.34;24.27
70437;BME280;57877;39.750;-104.894;2022-07-06T06:13:29;83854.14;;;25.47;24.01
70437;BME280;57877;39.750;-104.894;2022-07-06T06:15:54;83851.25;;;25.56;23.90
70437;BME280;57877;39.750;-104.894;2022-07-06T06:18:20;83848.96;;;25.45;23.89
70437;BME280;57877;39.750;-104.894;2022-07-06T06:20:45;83852.63;;;25.44;24.06
70437;BME280;57877;39.750;-104.894;2022-07-06T06:23:11;83854.30;;;25.68;24.34
70437;BME280;57877;39.750;-104.894;2022-07-06T06:25:38;83857.98;;;25.34;24.43
70437;BME280;57877;39.750;-104.894;2022-07-06T06:28:04;83863.45;;;25.31;24.99
70437;BME280;57877;39.750;-104.894;2022-07-06T06:30:28;83862.14;;;25.66;24.25
70437;BME280;57877;39.750;-104.894;2022-07-06T06:35:18;83853.49;;;25.86;24.08
70437;BME280;57877;39.750;-104.894;2022-07-06T06:37:43;83843.66;;;25.43;23.97
70437;BME280;57877;39.750;-104.894;2022-07-06T06:40:09;83842.36;;;25.84;23.70
70437;BME280;57877;39.750;-104.894;2022-07-06T06:42:36;83836.37;;;25.55;24.17
70437;BME280;57877;39.750;-104.894;2022-07-06T06:44:58;83833.41;;;25.52;24.01
70437;BME280;57877;39.750;-104.894;2022-07-06T06:47:25;83831.41;;;25.55;24.23
70437;BME280;57877;39.750;-104.894;2022-07-06T06:49:50;83826.92;;;25.52;24.41
70437;BME280;57877;39.750;-104.894;2022-07-06T06:52:16;83826.69;;;25.42;24.68
70437;BME280;57877;39.750;-104.894;2022-07-06T06:54:41;83825.75;;;25.77;24.83
70437;BME280;57877;39.750;-104.894;2022-07-06T06:57:07;83820.32;;;25.64;25.25
70437;BME280;57877;39.750;-104.894;2022-07-06T06:59:33;83820.74;;;25.03;25.72
70437;BME280;57877;39.750;-104.894;2022-07-06T07:01:59;83820.32;;;25.27;26.33
70437;BME280;57877;39.750;-104.894;2022-07-06T07:04:25;83821.70;;;25.29;25.85
70437;BME280;57877;39.750;-104.894;2022-07-06T07:06:51;83823.56;;;25.10;26.42
70437;BME280;57877;39.750;-104.894;2022-07-06T07:09:17;83821.50;;;24.93;25.97
70437;BME280;57877;39.750;-104.894;2022-07-06T07:11:43;83817.26;;;25.30;25.90
70437;BME280;57877;39.750;-104.894;2022-07-06T07:14:09;83817.98;;;25.20;26.03
70437;BME280;57877;39.750;-104.894;2022-07-06T07:16:35;83818.08;;;25.34;26.02
70437;BME280;57877;39.750;-104.894;2022-07-06T07:19:01;83817.47;;;24.99;26.46
70437;BME280;57877;39.750;-104.894;2022-07-06T07:21:27;83822.08;;;24.73;26.95
70437;BME280;57877;39.750;-104.894;2022-07-06T07:23:53;83833.13;;;24.58;27.47
70437;BME280;57877;39.750;-104.894;2022-07-06T07:26:19;83842.04;;;24.44;27.41
70437;BME280;57877;39.750;-104.894;2022-07-06T07:28:45;83843.88;;;24.40;27.56
70437;BME280;57877;39.750;-104.894;2022-07-06T07:31:11;83847.04;;;24.44;27.58
70437;BME280;57877;39.750;-104.894;2022-07-06T07:33:37;83850.66;;;24.27;27.96
70437;BME280;57877;39.750;-104.894;2022-07-06T07:36:03;83852.14;;;24.75;28.06
70437;BME280;57877;39.750;-104.894;2022-07-06T07:38:29;83855.34;;;24.27;28.70
70437;BME280;57877;39.750;-104.894;2022-07-06T07:40:55;83856.46;;;24.16;28.61
70437;BME280;57877;39.750;-104.894;2022-07-06T07:43:21;83853.21;;;23.92;28.47
70437;BME280;57877;39.750;-104.894;2022-07-06T07:45:48;83849.12;;;24.26;28.30
70437;BME280;57877;39.750;-104.894;2022-07-06T07:48:13;83852.11;;;24.63;27.85
70437;BME280;57877;39.750;-104.894;2022-07-06T07:50:38;83858.42;;;24.53;28.13
70437;BME280;57877;39.750;-104.894;2022-07-06T07:53:05;83855.97;;;24.58;28.29
70437;BME280;57877;39.750;-104.894;2022-07-06T07:55:31;83850.17;;;24.67;28.42
70437;BME280;57877;39.750;-104.894;2022-07-06T07:57:56;83851.37;;;24.65;28.09
70437;BME280;57877;39.750;-104.894;2022-07-06T08:00:23;83852.34;;;24.22;29.04
70437;BME280;57877;39.750;-104.894;2022-07-06T08:02:49;83848.88;;;24.39;28.90
70437;BME280;57877;39.750;-104.894;2022-07-06T08:05:15;83843.83;;;24.76;28.44
70437;BME280;57877;39.750;-104.894;2022-07-06T08:07:41;83839.66;;;25.00;28.10
70437;BME280;57877;39.750;-104.894;2022-07-06T08:10:07;83834.67;;;25.09;27.93
70437;BME280;57877;39.750;-104.894;2022-07-06T08:12:33;83836.18;;;24.81;28.24
70437;BME280;57877;39.750;-104.894;2022-07-06T08:14:59;83836.63;;;24.34;28.58
70437;BME280;57877;39.750;-104.894;2022-07-06T08:17:25;83836.77;;;24.07;29.60
70437;BME280;57877;39.750;-104.894;2022-07-06T08:19:51;83837.10;;;24.06;29.02
70437;BME280;57877;39.750;-104.894;2022-07-06T08:22:17;83838.07;;;24.18;29.46
70437;BME280;57877;39.750;-104.894;2022-07-06T08:24:43;83838.74;;;24.35;28.90
70437;BME280;57877;39.750;-104.894;2022-07-06T08:27:09;83837.37;;;24.65;28.41
70437;BME280;57877;39.750;-104.894;2022-07-06T08:29:35;83838.40;;;24.33;27.98
70437;BME280;57877;39.750;-104.894;2022-07-06T08:32:01;83840.63;;;23.72;28.01
70437;BME280;57877;39.750;-104.894;2022-07-06T08:34:27;83842.49;;;24.11;27.94
70437;BME280;57877;39.750;-104.894;2022-07-06T08:36:53;83841.84;;;24.27;27.62
70437;BME280;57877;39.750;-104.894;2022-07-06T08:39:19;83841.39;;;24.29;27.35
70437;BME280;57877;39.750;-104.894;2022-07-06T08:41:45;83842.80;;;24.10;27.02
70437;BME280;57877;39.750;-104.894;2022-07-06T08:44:11;83843.31;;;24.05;27.55
70437;BME280;57877;39.750;-104.894;2022-07-06T08:46:39;83843.19;;;23.98;27.58
70437;BME280;57877;39.750;-104.894;2022-07-06T08:49:03;83842.77;;;23.87;27.71
70437;BME280;57877;39.750;-104.894;2022-07-06T08:51:29;83845.16;;;23.92;27.61
70437;BME280;57877;39.750;-104.894;2022-07-06T08:53:55;83847.27;;;23.83;28.30
70437;BME280;57877;39.750;-104.894;2022-07-06T08:56:19;83848.35;;;23.74;28.34
70437;BME280;57877;39.750;-104.894;2022-07-06T08:58:44;83844.78;;;24.24;28.47
70437;BME280;57877;39.750;-104.894;2022-07-06T09:01:11;83845.39;;;23.84;28.65
70437;BME280;57877;39.750;-104.894;2022-07-06T09:03:36;83845.91;;;24.37;28.30
70437;BME280;57877;39.750;-104.894;2022-07-06T09:06:02;83849.44;;;24.06;28.50
70437;BME280;57877;39.750;-104.894;2022-07-06T09:08:28;83849.53;;;23.86;28.81
70437;BME280;57877;39.750;-104.894;2022-07-06T09:10:54;83847.51;;;23.73;29.02
70437;BME280;57877;39.750;-104.894;2022-07-06T09:13:19;83847.61;;;23.54;29.51
70437;BME280;57877;39.750;-104.894;2022-07-06T09:15:45;83847.44;;;23.26;29.20
70437;BME280;57877;39.750;-104.894;2022-07-06T09:18:10;83851.22;;;22.79;29.52
70437;BME280;57877;39.750;-104.894;2022-07-06T09:20:36;83861.03;;;22.75;29.09
70437;BME280;57877;39.750;-104.894;2022-07-06T09:23:04;83866.23;;;22.14;30.01
70437;BME280;57877;39.750;-104.894;2022-07-06T09:25:27;83866.93;;;22.10;29.80
70437;BME280;57877;39.750;-104.894;2022-07-06T09:27:54;83868.64;;;22.46;29.88
70437;BME280;57877;39.750;-104.894;2022-07-06T09:30:19;83877.67;;;22.73;29.83
70437;BME280;57877;39.750;-104.894;2022-07-06T09:32:47;83881.32;;;22.77;29.76
70437;BME280;57877;39.750;-104.894;2022-07-06T09:35:20;83885.44;;;22.26;30.44
70437;BME280;57877;39.750;-104.894;2022-07-06T09:37:37;83890.95;;;22.49;31.05
70437;BME280;57877;39.750;-104.894;2022-07-06T09:42:29;83886.40;;;21.68;33.62
70437;BME280;57877;39.750;-104.894;2022-07-06T09:44:55;83888.82;;;20.96;35.51
70437;BME280;57877;39.750;-104.894;2022-07-06T09:47:21;83885.84;;;21.50;34.98
70437;BME280;57877;39.750;-104.894;2022-07-06T09:49:47;83890.12;;;21.89;34.62
70437;BME280;57877;39.750;-104.894;2022-07-06T09:52:12;83894.02;;;21.63;35.08
70437;BME280;57877;39.750;-104.894;2022-07-06T09:54:39;83897.91;;;21.17;36.60
70437;BME280;57877;39.750;-104.894;2022-07-06T09:57:05;83894.96;;;21.17;36.79
70437;BME280;57877;39.750;-104.894;2022-07-06T09:59:31;83893.93;;;21.57;36.05
70437;BME280;57877;39.750;-104.894;2022-07-06T10:01:57;83895.60;;;21.86;35.48
70437;BME280;57877;39.750;-104.894;2022-07-06T10:04:24;83902.51;;;22.13;34.71
70437;BME280;57877;39.750;-104.894;2022-07-06T10:06:49;83910.46;;;21.88;34.83
70437;BME280;57877;39.750;-104.894;2022-07-06T10:09:14;83916.29;;;22.40;34.21
70437;BME280;57877;39.750;-104.894;2022-07-06T10:11:39;83921.86;;;22.30;34.53
70437;BME280;57877;39.750;-104.894;2022-07-06T10:14:06;83925.07;;;22.27;34.66
70437;BME280;57877;39.750;-104.894;2022-07-06T10:16:30;83929.97;;;21.97;35.22
70437;BME280;57877;39.750;-104.894;2022-07-06T10:18:57;83936.26;;;21.43;35.89
70437;BME280;57877;39.750;-104.894;2022-07-06T10:21:23;83937.08;;;21.65;35.91
70437;BME280;57877;39.750;-104.894;2022-07-06T10:23:49;83938.89;;;20.63;38.52
70437;BME280;57877;39.750;-104.894;2022-07-06T10:26:15;83942.83;;;20.04;40.24
70437;BME280;57877;39.750;-104.894;2022-07-06T10:28:42;83938.95;;;20.36;40.28
70437;BME280;57877;39.750;-104.894;2022-07-06T10:31:07;83941.58;;;21.04;40.21
70437;BME280;57877;39.750;-104.894;2022-07-06T10:33:33;83943.71;;;20.49;41.96
70437;BME280;57877;39.750;-104.894;2022-07-06T10:35:58;83946.46;;;20.53;42.82
70437;BME280;57877;39.750;-104.894;2022-07-06T10:38:32;83950.41;;;20.65;42.39
70437;BME280;57877;39.750;-104.894;2022-07-06T10:40:58;83954.88;;;20.74;43.48
70437;BME280;57877;39.750;-104.894;2022-07-06T10:43:16;83955.67;;;21.44;42.54
70437;BME280;57877;39.750;-104.894;2022-07-06T10:50:35;83969.40;;;19.69;47.27
70437;BME280;57877;39.750;-104.894;2022-07-06T10:53:00;83968.37;;;19.84;47.85
70437;BME280;57877;39.750;-104.894;2022-07-06T10:55:31;83971.95;;;19.83;47.59
70437;BME280;57877;39.750;-104.894;2022-07-06T10:57:52;83980.55;;;19.63;48.35
70437;BME280;57877;39.750;-104.894;2022-07-06T11:00:18;83988.57;;;19.39;49.90
70437;BME280;57877;39.750;-104.894;2022-07-06T11:02:44;83986.16;;;19.78;49.32
70437;BME280;57877;39.750;-104.894;2022-07-06T11:05:11;83985.36;;;19.65;50.00
70437;BME280;57877;39.750;-104.894;2022-07-06T11:10:02;83986.16;;;20.01;49.12
70437;BME280;57877;39.750;-104.894;2022-07-06T11:12:28;83988.66;;;19.78;49.40
70437;BME280;57877;39.750;-104.894;2022-07-06T11:14:54;83995.92;;;19.70;49.66
70437;BME280;57877;39.750;-104.894;2022-07-06T11:17:20;83997.16;;;20.34;48.61
70437;BME280;57877;39.750;-104.894;2022-07-06T11:19:50;84002.28;;;19.94;49.13
70437;BME280;57877;39.750;-104.894;2022-07-06T11:22:16;84008.32;;;20.38;48.15
70437;BME280;57877;39.750;-104.894;2022-07-06T11:24:40;84016.35;;;19.24;50.36
70437;BME280;57877;39.750;-104.894;2022-07-06T11:27:04;84017.84;;;20.32;48.16
70437;BME280;57877;39.750;-104.894;2022-07-06T11:29:31;84020.52;;;18.87;51.59
70437;BME280;57877;39.750;-104.894;2022-07-06T11:31:57;84023.71;;;20.15;48.59
70437;BME280;57877;39.750;-104.894;2022-07-06T11:34:23;84028.35;;;19.05;51.69
70437;BME280;57877;39.750;-104.894;2022-07-06T11:36:48;84028.75;;;19.56;50.20
70437;BME280;57877;39.750;-104.894;2022-07-06T11:39:14;84030.99;;;20.10;49.01
70437;BME280;57877;39.750;-104.894;2022-07-06T11:41:40;84028.62;;;19.50;50.79
70437;BME280;57877;39.750;-104.894;2022-07-06T11:44:06;84026.76;;;18.83;52.65
70437;BME280;57877;39.750;-104.894;2022-07-06T11:46:33;84029.03;;;19.26;51.38
70437;BME280;57877;39.750;-104.894;2022-07-06T11:48:59;84036.61;;;19.85;49.70
70437;BME280;57877;39.750;-104.894;2022-07-06T11:51:25;84036.78;;;19.26;50.79
70437;BME280;57877;39.750;-104.894;2022-07-06T11:53:52;84043.16;;;19.50;50.54
70437;BME280;57877;39.750;-104.894;2022-07-06T11:56:16;84048.94;;;19.99;49.49
70437;BME280;57877;39.750;-104.894;2022-07-06T11:58:42;84051.35;;;20.39;47.89
70437;BME280;57877;39.750;-104.894;2022-07-06T12:01:09;84052.58;;;20.05;48.44
70437;BME280;57877;39.750;-104.894;2022-07-06T12:03:33;84054.91;;;20.29;48.01
70437;BME280;57877;39.750;-104.894;2022-07-06T12:05:59;84054.99;;;19.77;49.09
70437;BME280;57877;39.750;-104.894;2022-07-06T12:08:26;84054.89;;;19.87;48.91
70437;BME280;57877;39.750;-104.894;2022-07-06T12:10:51;84054.38;;;20.18;48.25
70437;BME280;57877;39.750;-104.894;2022-07-06T12:13:17;84051.93;;;20.16;48.12
70437;BME280;57877;39.750;-104.894;2022-07-06T12:15:44;84055.56;;;20.64;47.02
70437;BME280;57877;39.750;-104.894;2022-07-06T12:18:14;84054.36;;;20.42;47.64
70437;BME280;57877;39.750;-104.894;2022-07-06T12:20:35;84060.08;;;20.95;46.67
70437;BME280;57877;39.750;-104.894;2022-07-06T12:23:02;84057.53;;;20.79;46.45
70437;BME280;57877;39.750;-104.894;2022-07-06T12:25:32;84056.34;;;21.10;46.50
70437;BME280;57877;39.750;-104.894;2022-07-06T12:27:52;84054.72;;;21.24;45.53
70437;BME280;57877;39.750;-104.894;2022-07-06T12:30:18;84063.10;;;20.34;46.89
70437;BME280;57877;39.750;-104.894;2022-07-06T12:32:43;84065.47;;;21.17;45.53
70437;BME280;57877;39.750;-104.894;2022-07-06T12:35:10;84066.87;;;20.91;45.95